sensor_id;sensor_type;location;lat;lon;timestamp;P1;durP1;ratioP1;P2;durP2;ratioP2
12482;SDS011;6306;47.134;15.344;2022-08-21T00:00:39;0.80;;;0.60;;
12482;SDS011;6306;47.134;15.344;2022-08-21T00:03:06;1.00;;;0.90;;
12482;SDS011;6306;47.134;15.344;2022-08-21T00:05:33;0.90;;;0.70;;
12482;SDS011;6306;47.134;15.344;2022-08-21T00:08:01;0.60;;;0.50;;
12482;SDS011;6306;47.134;15.344;2022-08-21T00:10:27;4.73;;;1.00;;
12482;SDS011;6306;47.134;15.344;2022-08-21T00:12:53;5.23;;;1.33;;
12482;SDS011;6306;47.134;15.344;2022-08-21T00:15:27;1.27;;;1.13;;
12482;SDS011;6306;47.134;15.344;2022-08-21T00:17:54;1.63;;;1.10;;
12482;SDS011;6306;47.134;15.344;2022-08-21T00:20:20;0.93;;;0.93;;
12482;SDS011;6306;47.134;15.344;2022-08-21T00:22:48;0.93;;;0.80;;
12482;SDS011;6306;47.134;15.344;2022-08-21T00:25:14;1.20;;;1.10;;
12482;SDS011;6306;47.134;15.344;2022-08-21T00:27:41;1.50;;;0.87;;
12482;SDS011;6306;47.134;15.344;2022-08-21T00:30:08;1.40;;;1.30;;
12482;SDS011;6306;47.134;15.344;2022-08-21T00:32:35;1.00;;;0.90;;
12482;SDS011;6306;47.134;15.344;2022-08-21T00:35:02;0.90;;;0.67;;
12482;SDS011;6306;47.134;15.344;2022-08-21T00:37:28;1.07;;;1.07;;
12482;SDS011;6306;47.134;15.344;2022-08-21T00:39:54;0.80;;;0.80;;
12482;SDS011;6306;47.134;15.344;2022-08-21T00:42:20;1.07;;;0.97;;
12482;SDS011;6306;47.134;15.344;2022-08-21T00:44:47;1.30;;;1.03;;
12482;SDS011;6306;47.134;15.344;2022-08-21T00:47:15;1.47;;;1.10;;
12482;SDS011;6306;47.134;15.344;2022-08-21T00:49:41;0.83;;;0.83;;
12482;SDS011;6306;47.134;15.344;2022-08-21T00:52:09;2.70;;;1.37;;
12482;SDS011;6306;47.134;15.344;2022-08-21T00:54:36;0.80;;;0.80;;
12482;SDS011;6306;47.134;15.344;2022-08-21T00:57:06;1.13;;;0.97;;
12482;SDS011;6306;47.134;15.344;2022-08-21T00:59:34;0.83;;;0.80;;
12482;SDS011;6306;47.134;15.344;2022-08-21T01:02:01;1.07;;;0.90;;
12482;SDS011;6306;47.134;15.344;2022-08-21T01:04:27;1.00;;;0.90;;
12482;SDS011;6306;47.134;15.344;2022-08-21T01:06:53;2.10;;;0.90;;
12482;SDS011;6306;47.134;15.344;2022-08-21T01:09:20;0.80;;;0.60;;
12482;SDS011;6306;47.134;15.344;2022-08-21T01:11:46;1.93;;;0.90;;
12482;SDS011;6306;47.134;15.344;2022-08-21T01:14:12;1.40;;;0.97;;
12482;SDS011;6306;47.134;15.344;2022-08-21T01:16:42;1.07;;;0.97;;
12482;SDS011;6306;47.134;15.344;2022-08-21T01:19:09;1.00;;;1.00;;
12482;SDS011;6306;47.134;15.344;2022-08-21T01:21:36;1.20;;;0.90;;
12482;SDS011;6306;47.134;15.344;2022-08-21T01:24:02;0.73;;;0.70;;
12482;SDS011;6306;47.134;15.344;2022-08-21T01:26:29;1.07;;;0.97;;
12482;SDS011;6306;47.134;15.344;2022-08-21T01:31:31;1.43;;;1.10;;
12482;SDS011;6306;47.134;15.344;2022-08-21T01:33:58;0.90;;;0.90;;
12482;SDS011;6306;47.134;15.344;2022-08-21T01:36:24;4.20;;;1.03;;
12482;SDS011;6306;47.134;15.344;2022-08-21T01:38:51;2.00;;;1.27;;
12482;SDS011;6306;47.134;15.344;2022-08-21T01:41:17;2.20;;;1.27;;
12482;SDS011;6306;47.134;15.344;2022-08-21T01:43:43;1.23;;;0.90;;
12482;SDS011;6306;47.134;15.344;2022-08-21T01:46:10;2.10;;;1.40;;
12482;SDS011;6306;47.134;15.344;2022-08-21T01:48:36;2.33;;;1.33;;
12482;SDS011;6306;47.134;15.344;2022-08-21T01:51:02;1.23;;;1.17;;
12482;SDS011;6306;47.134;15.344;2022-08-21T01:53:29;1.30;;;1.10;;
12482;SDS011;6306;47.134;15.344;2022-08-21T01:55:55;2.20;;;1.63;;
12482;SDS011;6306;47.134;15.344;2022-08-21T01:58:21;2.53;;;1.07;;
12482;SDS011;6306;47.134;15.344;2022-08-21T02:00:47;0.90;;;0.80;;
12482;SDS011;6306;47.134;15.344;2022-08-21T02:03:14;0.80;;;0.80;;
12482;SDS011;6306;47.134;15.344;2022-08-21T02:05:40;0.97;;;0.97;;
12482;SDS011;6306;47.134;15.344;2022-08-21T02:08:06;1.50;;;1.40;;
12482;SDS011;6306;47.134;15.344;2022-08-21T02:10:33;1.20;;;1.10;;
12482;SDS011;6306;47.134;15.344;2022-08-21T02:12:59;1.17;;;1.07;;
12482;SDS011;6306;47.134;15.344;2022-08-21T02:15:26;1.50;;;1.40;;
12482;SDS011;6306;47.134;15.344;2022-08-21T02:17:54;1.30;;;1.20;;
12482;SDS011;6306;47.134;15.344;2022-08-21T02:20:25;1.20;;;1.10;;
12482;SDS011;6306;47.134;15.344;2022-08-21T02:22:52;1.53;;;1.43;;
12482;SDS011;6306;47.134;15.344;2022-08-21T02:25:18;1.47;;;1.23;;
12482;SDS011;6306;47.134;15.344;2022-08-21T02:27:45;1.20;;;1.00;;
12482;SDS011;6306;47.134;15.344;2022-08-21T02:30:16;1.77;;;1.67;;
12482;SDS011;6306;47.134;15.344;2022-08-21T02:32:42;5.30;;;2.03;;
12482;SDS011;6306;47.134;15.344;2022-08-21T02:35:09;1.00;;;1.00;;
12482;SDS011;6306;47.134;15.344;2022-08-21T02:37:47;1.23;;;1.13;;
12482;SDS011;6306;47.134;15.344;2022-08-21T02:40:14;0.83;;;0.83;;
12482;SDS011;6306;47.134;15.344;2022-08-21T02:42:40;1.30;;;1.20;;
12482;SDS011;6306;47.134;15.344;2022-08-21T02:45:06;1.03;;;0.83;;
12482;SDS011;6306;47.134;15.344;2022-08-21T02:47:33;2.07;;;1.30;;
12482;SDS011;6306;47.134;15.344;2022-08-21T02:49:59;2.50;;;1.23;;
12482;SDS011;6306;47.134;15.344;2022-08-21T02:52:25;1.20;;;0.93;;
12482;SDS011;6306;47.134;15.344;2022-08-21T02:54:51;1.80;;;1.30;;
12482;SDS011;6306;47.134;15.344;2022-08-21T02:57:17;2.47;;;1.10;;
12482;SDS011;6306;47.134;15.344;2022-08-21T02:59:43;1.13;;;1.13;;
12482;SDS011;6306;47.134;15.344;2022-08-21T03:02:09;1.60;;;1.40;;
12482;SDS011;6306;47.134;15.344;2022-08-21T03:04:36;1.20;;;1.10;;
12482;SDS011;6306;47.134;15.344;2022-08-21T03:07:02;1.33;;;1.20;;
12482;SDS011;6306;47.134;15.344;2022-08-21T03:09:28;0.80;;;0.80;;
12482;SDS011;6306;47.134;15.344;2022-08-21T03:11:54;1.10;;;1.10;;
12482;SDS011;6306;47.134;15.344;2022-08-21T03:14:20;1.70;;;1.60;;
12482;SDS011;6306;47.134;15.344;2022-08-21T03:16:46;1.37;;;1.20;;
12482;SDS011;6306;47.134;15.344;2022-08-21T03:19:12;0.97;;;0.63;;
12482;SDS011;6306;47.134;15.344;2022-08-21T03:21:38;1.47;;;1.37;;
12482;SDS011;6306;47.134;15.344;2022-08-21T03:24:04;1.73;;;1.63;;
12482;SDS011;6306;47.134;15.344;2022-08-21T03:26:31;4.10;;;1.30;;
12482;SDS011;6306;47.134;15.344;2022-08-21T03:28:57;1.27;;;1.17;;
12482;SDS011;6306;47.134;15.344;2022-08-21T03:31:24;1.40;;;1.30;;
12482;SDS011;6306;47.134;15.344;2022-08-21T03:33:53;1.60;;;1.50;;
12482;SDS011;6306;47.134;15.344;2022-08-21T03:36:20;1.47;;;1.23;;
12482;SDS011;6306;47.134;15.344;2022-08-21T03:38:46;1.30;;;1.20;;
12482;SDS011;6306;47.134;15.344;2022-08-21T03:41:12;1.50;;;1.20;;
12482;SDS011;6306;47.134;15.344;2022-08-21T03:43:38;1.67;;;1.20;;
12482;SDS011;6306;47.134;15.344;2022-08-21T03:46:04;1.53;;;1.43;;
12482;SDS011;6306;47.134;15.344;2022-08-21T03:48:31;1.20;;;1.10;;
12482;SDS011;6306;47.134;15.344;2022-08-21T03:50:57;1.20;;;1.00;;
12482;SDS011;6306;47.134;15.344;2022-08-21T03:53:23;0.90;;;0.90;;
12482;SDS011;6306;47.134;15.344;2022-08-21T03:55:50;1.13;;;1.03;;
12482;SDS011;6306;47.134;15.344;2022-08-21T03:58:18;1.07;;;0.97;;
12482;SDS011;6306;47.134;15.344;2022-08-21T04:00:45;1.83;;;1.70;;
12482;SDS011;6306;47.134;15.344;2022-08-21T04:03:12;1.07;;;1.07;;
12482;SDS011;6306;47.134;15.344;2022-08-21T04:05:38;3.17;;;1.10;;
12482;SDS011;6306;47.134;15.344;2022-08-21T04:08:04;1.30;;;1.00;;
12482;SDS011;6306;47.134;15.344;2022-08-21T04:10:32;2.43;;;1.10;;
12482;SDS011;6306;47.134;15.344;2022-08-21T04:13:00;1.70;;;1.40;;
12482;SDS011;6306;47.134;15.344;2022-08-21T04:15:26;1.30;;;1.13;;
12482;SDS011;6306;47.134;15.344;2022-08-21T04:17:52;0.73;;;0.73;;
12482;SDS011;6306;47.134;15.344;2022-08-21T04:20:19;1.30;;;1.20;;
12482;SDS011;6306;47.134;15.344;2022-08-21T04:22:46;1.10;;;1.00;;
12482;SDS011;6306;47.134;15.344;2022-08-21T04:25:13;1.43;;;1.33;;
12482;SDS011;6306;47.134;15.344;2022-08-21T04:27:39;2.03;;;1.60;;
12482;SDS011;6306;47.134;15.344;2022-08-21T04:30:05;1.37;;;1.27;;
12482;SDS011;6306;47.134;15.344;2022-08-21T04:32:32;1.73;;;1.63;;
12482;SDS011;6306;47.134;15.344;2022-08-21T04:35:00;1.50;;;1.40;;
12482;SDS011;6306;47.134;15.344;2022-08-21T04:37:27;1.27;;;1.17;;
12482;SDS011;6306;47.134;15.344;2022-08-21T04:39:53;4.67;;;1.10;;
12482;SDS011;6306;47.134;15.344;2022-08-21T04:42:22;1.57;;;1.10;;
12482;SDS011;6306;47.134;15.344;2022-08-21T04:44:48;1.37;;;1.17;;
12482;SDS011;6306;47.134;15.344;2022-08-21T04:47:14;2.00;;;0.97;;
12482;SDS011;6306;47.134;15.344;2022-08-21T04:49:41;1.47;;;1.37;;
12482;SDS011;6306;47.134;15.344;2022-08-21T04:52:08;1.57;;;1.30;;
12482;SDS011;6306;47.134;15.344;2022-08-21T04:54:34;1.47;;;1.20;;
12482;SDS011;6306;47.134;15.344;2022-08-21T04:57:00;2.03;;;1.37;;
12482;SDS011;6306;47.134;15.344;2022-08-21T04:59:43;4.93;;;1.70;;
12482;SDS011;6306;47.134;15.344;2022-08-21T05:02:10;1.53;;;1.43;;
12482;SDS011;6306;47.134;15.344;2022-08-21T05:04:38;1.50;;;1.40;;
12482;SDS011;6306;47.134;15.344;2022-08-21T05:07:05;1.57;;;1.47;;
12482;SDS011;6306;47.134;15.344;2022-08-21T05:09:33;1.67;;;1.30;;
12482;SDS011;6306;47.134;15.344;2022-08-21T05:12:00;2.73;;;1.20;;
12482;SDS011;6306;47.134;15.344;2022-08-21T05:14:27;1.23;;;1.13;;
12482;SDS011;6306;47.134;15.344;2022-08-21T05:16:53;2.00;;;1.80;;
12482;SDS011;6306;47.134;15.344;2022-08-21T05:19:19;1.80;;;1.53;;
12482;SDS011;6306;47.134;15.344;2022-08-21T05:21:45;1.70;;;1.47;;
12482;SDS011;6306;47.134;15.344;2022-08-21T05:24:13;1.27;;;1.17;;
12482;SDS011;6306;47.134;15.344;2022-08-21T05:26:39;1.33;;;1.23;;
12482;SDS011;6306;47.134;15.344;2022-08-21T05:29:05;1.37;;;1.23;;
12482;SDS011;6306;47.134;15.344;2022-08-21T05:31:31;3.27;;;1.10;;
12482;SDS011;6306;47.134;15.344;2022-08-21T05:33:57;1.23;;;1.13;;
12482;SDS011;6306;47.134;15.344;2022-08-21T05:36:24;1.20;;;1.10;;
12482;SDS011;6306;47.134;15.344;2022-08-21T05:38:50;1.30;;;1.20;;
12482;SDS011;6306;47.134;15.344;2022-08-21T05:41:16;1.33;;;1.23;;
12482;SDS011;6306;47.134;15.344;2022-08-21T05:43:42;1.93;;;1.27;;
12482;SDS011;6306;47.134;15.344;2022-08-21T05:46:08;2.57;;;1.80;;
12482;SDS011;6306;47.134;15.344;2022-08-21T05:48:35;1.77;;;1.67;;
12482;SDS011;6306;47.134;15.344;2022-08-21T05:51:08;2.00;;;1.63;;
12482;SDS011;6306;47.134;15.344;2022-08-21T05:53:35;2.20;;;2.00;;
12482;SDS011;6306;47.134;15.344;2022-08-21T05:56:01;4.00;;;1.57;;
12482;SDS011;6306;47.134;15.344;2022-08-21T05:58:29;2.20;;;1.20;;
12482;SDS011;6306;47.134;15.344;2022-08-21T06:00:55;1.63;;;1.53;;
12482;SDS011;6306;47.134;15.344;2022-08-21T06:03:24;1.97;;;1.57;;
12482;SDS011;6306;47.134;15.344;2022-08-21T06:05:51;1.60;;;1.50;;
12482;SDS011;6306;47.134;15.344;2022-08-21T06:08:18;1.60;;;1.50;;
12482;SDS011;6306;47.134;15.344;2022-08-21T06:10:44;1.70;;;1.60;;
12482;SDS011;6306;47.134;15.344;2022-08-21T06:13:11;1.73;;;1.50;;
12482;SDS011;6306;47.134;15.344;2022-08-21T06:15:37;1.47;;;1.27;;
12482;SDS011;6306;47.134;15.344;2022-08-21T06:18:03;1.50;;;1.40;;
12482;SDS011;6306;47.134;15.344;2022-08-21T06:20:29;2.70;;;1.57;;
12482;SDS011;6306;47.134;15.344;2022-08-21T06:22:56;1.00;;;1.00;;
12482;SDS011;6306;47.134;15.344;2022-08-21T06:25:22;1.37;;;1.27;;
12482;SDS011;6306;47.134;15.344;2022-08-21T06:27:49;1.33;;;1.23;;
12482;SDS011;6306;47.134;15.344;2022-08-21T06:30:16;0.90;;;0.90;;
12482;SDS011;6306;47.134;15.344;2022-08-21T06:32:42;1.80;;;1.40;;
12482;SDS011;6306;47.134;15.344;2022-08-21T06:35:08;1.57;;;1.20;;
12482;SDS011;6306;47.134;15.344;2022-08-21T06:37:34;1.43;;;1.23;;
12482;SDS011;6306;47.134;15.344;2022-08-21T06:40:01;1.10;;;1.00;;
12482;SDS011;6306;47.134;15.344;2022-08-21T06:42:27;1.90;;;0.70;;
12482;SDS011;6306;47.134;15.344;2022-08-21T06:44:53;1.37;;;1.27;;
12482;SDS011;6306;47.134;15.344;2022-08-21T06:47:19;0.83;;;0.83;;
12482;SDS011;6306;47.134;15.344;2022-08-21T06:49:45;1.17;;;1.17;;
12482;SDS011;6306;47.134;15.344;2022-08-21T06:52:11;1.17;;;1.00;;
12482;SDS011;6306;47.134;15.344;2022-08-21T06:54:38;1.20;;;1.03;;
12482;SDS011;6306;47.134;15.344;2022-08-21T06:57:04;1.13;;;1.13;;
12482;SDS011;6306;47.134;15.344;2022-08-21T06:59:30;0.90;;;0.70;;
12482;SDS011;6306;47.134;15.344;2022-08-21T07:01:57;1.10;;;1.00;;
12482;SDS011;6306;47.134;15.344;2022-08-21T07:04:23;1.13;;;1.13;;
12482;SDS011;6306;47.134;15.344;2022-08-21T07:06:49;1.40;;;1.30;;
12482;SDS011;6306;47.134;15.344;2022-08-21T07:09:15;1.00;;;1.00;;
12482;SDS011;6306;47.134;15.344;2022-08-21T07:11:41;1.60;;;1.50;;
12482;SDS011;6306;47.134;15.344;2022-08-21T07:14:08;1.37;;;1.20;;
12482;SDS011;6306;47.134;15.344;2022-08-21T07:16:34;1.40;;;1.30;;
12482;SDS011;6306;47.134;15.344;2022-08-21T07:19:00;0.97;;;0.97;;
12482;SDS011;6306;47.134;15.344;2022-08-21T07:21:26;1.13;;;1.03;;
12482;SDS011;6306;47.134;15.344;2022-08-21T07:23:52;1.03;;;1.03;;
12482;SDS011;6306;47.134;15.344;2022-08-21T07:26:19;0.80;;;0.80;;
12482;SDS011;6306;47.134;15.344;2022-08-21T07:28:46;1.40;;;1.30;;
12482;SDS011;6306;47.134;15.344;2022-08-21T07:31:13;1.00;;;0.93;;
12482;SDS011;6306;47.134;15.344;2022-08-21T07:33:39;1.43;;;1.33;;
12482;SDS011;6306;47.134;15.344;2022-08-21T07:36:06;1.93;;;1.30;;
12482;SDS011;6306;47.134;15.344;2022-08-21T07:38:32;0.70;;;0.70;;
12482;SDS011;6306;47.134;15.344;2022-08-21T07:40:58;1.60;;;1.43;;
12482;SDS011;6306;47.134;15.344;2022-08-21T07:43:25;1.13;;;0.80;;
12482;SDS011;6306;47.134;15.344;2022-08-21T07:45:51;1.23;;;1.13;;
12482;SDS011;6306;47.134;15.344;2022-08-21T07:48:18;1.03;;;0.97;;
12482;SDS011;6306;47.134;15.344;2022-08-21T07:50:45;1.17;;;1.13;;
12482;SDS011;6306;47.134;15.344;2022-08-21T07:53:11;1.00;;;1.00;;
12482;SDS011;6306;47.134;15.344;2022-08-21T07:55:37;0.80;;;0.80;;
12482;SDS011;6306;47.134;15.344;2022-08-21T07:58:03;1.20;;;1.10;;
12482;SDS011;6306;47.134;15.344;2022-08-21T08:00:29;1.33;;;1.23;;
12482;SDS011;6306;47.134;15.344;2022-08-21T08:02:55;1.30;;;1.20;;
12482;SDS011;6306;47.134;15.344;2022-08-21T08:05:24;1.43;;;1.30;;
12482;SDS011;6306;47.134;15.344;2022-08-21T08:07:51;0.80;;;0.80;;
12482;SDS011;6306;47.134;15.344;2022-08-21T08:10:17;0.87;;;0.87;;
12482;SDS011;6306;47.134;15.344;2022-08-21T08:12:44;1.27;;;1.17;;
12482;SDS011;6306;47.134;15.344;2022-08-21T08:15:12;1.37;;;1.27;;
12482;SDS011;6306;47.134;15.344;2022-08-21T08:17:38;1.93;;;1.30;;
12482;SDS011;6306;47.134;15.344;2022-08-21T08:20:05;0.93;;;0.83;;
12482;SDS011;6306;47.134;15.344;2022-08-21T08:22:31;1.60;;;1.23;;
12482;SDS011;6306;47.134;15.344;2022-08-21T08:24:59;1.37;;;1.30;;
12482;SDS011;6306;47.134;15.344;2022-08-21T08:27:25;1.20;;;1.10;;
12482;SDS011;6306;47.134;15.344;2022-08-21T08:29:51;1.87;;;1.13;;
12482;SDS011;6306;47.134;15.344;2022-08-21T08:32:17;1.33;;;1.00;;
12482;SDS011;6306;47.134;15.344;2022-08-21T08:34:44;0.87;;;0.87;;
12482;SDS011;6306;47.134;15.344;2022-08-21T08:37:11;1.67;;;1.10;;
12482;SDS011;6306;47.134;15.344;2022-08-21T08:39:37;0.70;;;0.70;;
12482;SDS011;6306;47.134;15.344;2022-08-21T08:44:34;1.17;;;1.07;;
12482;SDS011;6306;47.134;15.344;2022-08-21T08:47:00;1.00;;;1.00;;
12482;SDS011;6306;47.134;15.344;2022-08-21T08:49:29;1.30;;;1.20;;
12482;SDS011;6306;47.134;15.344;2022-08-21T08:51:59;0.60;;;0.60;;
12482;SDS011;6306;47.134;15.344;2022-08-21T08:54:37;1.30;;;1.20;;
12482;SDS011;6306;47.134;15.344;2022-08-21T08:57:07;2.03;;;1.37;;
12482;SDS011;6306;47.134;15.344;2022-08-21T08:59:44;1.47;;;1.37;;
12482;SDS011;6306;47.134;15.344;2022-08-21T09:02:15;3.00;;;1.20;;
12482;SDS011;6306;47.134;15.344;2022-08-21T09:04:41;0.90;;;0.90;;
12482;SDS011;6306;47.134;15.344;2022-08-21T09:07:11;0.70;;;0.70;;
12482;SDS011;6306;47.134;15.344;2022-08-21T09:17:16;0.90;;;0.87;;
12482;SDS011;6306;47.134;15.344;2022-08-21T09:27:22;0.70;;;0.70;;
12482;SDS011;6306;47.134;15.344;2022-08-21T09:29:49;1.10;;;1.10;;
12482;SDS011;6306;47.134;15.344;2022-08-21T09:32:17;0.73;;;0.70;;
12482;SDS011;6306;47.134;15.344;2022-08-21T09:34:54;1.00;;;0.90;;
12482;SDS011;6306;47.134;15.344;2022-08-21T09:37:20;0.70;;;0.60;;
12482;SDS011;6306;47.134;15.344;2022-08-21T09:39:46;1.10;;;1.00;;
12482;SDS011;6306;47.134;15.344;2022-08-21T09:42:20;0.87;;;0.87;;
12482;SDS011;6306;47.134;15.344;2022-08-21T09:44:47;1.40;;;1.03;;
12482;SDS011;6306;47.134;15.344;2022-08-21T09:47:12;0.87;;;0.80;;
12482;SDS011;6306;47.134;15.344;2022-08-21T09:49:39;1.47;;;0.80;;
12482;SDS011;6306;47.134;15.344;2022-08-21T09:52:20;1.30;;;1.20;;
12482;SDS011;6306;47.134;15.344;2022-08-21T09:54:49;1.43;;;1.00;;
12482;SDS011;6306;47.134;15.344;2022-08-21T09:57:22;1.70;;;1.60;;
12482;SDS011;6306;47.134;15.344;2022-08-21T10:03:09;1.70;;;1.60;;
12482;SDS011;6306;47.134;15.344;2022-08-21T10:05:36;1.70;;;1.60;;
12482;SDS011;6306;47.134;15.344;2022-08-21T10:08:03;1.60;;;1.50;;
12482;SDS011;6306;47.134;15.344;2022-08-21T10:10:30;1.63;;;1.50;;
12482;SDS011;6306;47.134;15.344;2022-08-21T10:13:02;1.70;;;1.37;;
12482;SDS011;6306;47.134;15.344;2022-08-21T10:39:05;0.80;;;0.80;;
12482;SDS011;6306;47.134;15.344;2022-08-21T10:49:16;1.50;;;0.80;;
12482;SDS011;6306;47.134;15.344;2022-08-21T10:52:32;0.50;;;0.50;;
12482;SDS011;6306;47.134;15.344;2022-08-21T10:57:00;0.47;;;0.40;;
12482;SDS011;6306;47.134;15.344;2022-08-21T10:59:33;0.50;;;0.50;;
12482;SDS011;6306;47.134;15.344;2022-08-21T11:02:17;0.60;;;0.60;;
12482;SDS011;6306;47.134;15.344;2022-08-21T11:07:30;0.40;;;0.40;;
12482;SDS011;6306;47.134;15.344;2022-08-21T11:09:59;0.60;;;0.60;;
12482;SDS011;6306;47.134;15.344;2022-08-21T11:12:38;0.30;;;0.30;;
12482;SDS011;6306;47.134;15.344;2022-08-21T11:17:45;0.40;;;0.40;;
12482;SDS011;6306;47.134;15.344;2022-08-21T11:20:28;0.37;;;0.30;;
12482;SDS011;6306;47.134;15.344;2022-08-21T11:23:07;0.50;;;0.40;;
12482;SDS011;6306;47.134;15.344;2022-08-21T11:25:40;0.40;;;0.40;;
12482;SDS011;6306;47.134;15.344;2022-08-21T11:28:15;0.60;;;0.50;;
12482;SDS011;6306;47.134;15.344;2022-08-21T11:50:54;0.50;;;0.50;;
12482;SDS011;6306;47.134;15.344;2022-08-21T11:53:23;1.63;;;0.90;;
12482;SDS011;6306;47.134;15.344;2022-08-21T11:56:08;0.40;;;0.33;;
12482;SDS011;6306;47.134;15.344;2022-08-21T11:58:48;0.40;;;0.30;;
12482;SDS011;6306;47.134;15.344;2022-08-21T12:01:17;0.70;;;0.40;;
12482;SDS011;6306;47.134;15.344;2022-08-21T12:06:38;0.60;;;0.50;;
12482;SDS011;6306;47.134;15.344;2022-08-21T12:09:28;0.43;;;0.40;;
12482;SDS011;6306;47.134;15.344;2022-08-21T12:12:00;0.93;;;0.53;;
12482;SDS011;6306;47.134;15.344;2022-08-21T12:14:37;2.20;;;0.60;;
12482;SDS011;6306;47.134;15.344;2022-08-21T12:17:04;0.50;;;0.50;;
12482;SDS011;6306;47.134;15.344;2022-08-21T12:19:31;0.40;;;0.40;;
12482;SDS011;6306;47.134;15.344;2022-08-21T12:31:50;0.60;;;0.60;;
12482;SDS011;6306;47.134;15.344;2022-08-21T12:34:16;0.80;;;0.73;;
12482;SDS011;6306;47.134;15.344;2022-08-21T12:39:44;1.00;;;0.50;;
12482;SDS011;6306;47.134;15.344;2022-08-21T12:44:40;0.40;;;0.40;;
12482;SDS011;6306;47.134;15.344;2022-08-21T12:47:17;0.40;;;0.30;;
12482;SDS011;6306;47.134;15.344;2022-08-21T12:49:54;1.63;;;0.63;;
12482;SDS011;6306;47.134;15.344;2022-08-21T12:52:33;1.60;;;0.70;;
12482;SDS011;6306;47.134;15.344;2022-08-21T12:54:59;0.30;;;0.30;;
12482;SDS011;6306;47.134;15.344;2022-08-21T12:57:27;0.60;;;0.60;;
12482;SDS011;6306;47.134;15.344;2022-08-21T12:59:57;0.67;;;0.43;;
12482;SDS011;6306;47.134;15.344;2022-08-21T13:02:31;0.40;;;0.40;;
12482;SDS011;6306;47.134;15.344;2022-08-21T13:04:57;0.50;;;0.50;;
12482;SDS011;6306;47.134;15.344;2022-08-21T13:07:27;0.50;;;0.40;;
12482;SDS011;6306;47.134;15.344;2022-08-21T13:09:57;0.40;;;0.40;;
12482;SDS011;6306;47.134;15.344;2022-08-21T13:12:24;0.40;;;0.40;;
12482;SDS011;6306;47.134;15.344;2022-08-21T13:14:51;1.83;;;0.60;;
12482;SDS011;6306;47.134;15.344;2022-08-21T13:17:18;0.40;;;0.40;;
12482;SDS011;6306;47.134;15.344;2022-08-21T13:20:02;0.57;;;0.57;;
12482;SDS011;6306;47.134;15.344;2022-08-21T13:22:28;0.40;;;0.40;;
12482;SDS011;6306;47.134;15.344;2022-08-21T13:24:55;0.47;;;0.40;;
12482;SDS011;6306;47.134;15.344;2022-08-21T13:27:25;0.50;;;0.50;;
12482;SDS011;6306;47.134;15.344;2022-08-21T13:32:51;0.50;;;0.50;;
12482;SDS011;6306;47.134;15.344;2022-08-21T13:35:25;0.47;;;0.47;;
12482;SDS011;6306;47.134;15.344;2022-08-21T13:37:52;0.53;;;0.53;;
12482;SDS011;6306;47.134;15.344;2022-08-21T13:40:30;0.80;;;0.80;;
12482;SDS011;6306;47.134;15.344;2022-08-21T13:42:57;0.70;;;0.63;;
12482;SDS011;6306;47.134;15.344;2022-08-21T13:45:27;0.63;;;0.57;;
12482;SDS011;6306;47.134;15.344;2022-08-21T13:47:56;0.50;;;0.50;;
12482;SDS011;6306;47.134;15.344;2022-08-21T13:50:23;0.60;;;0.60;;
12482;SDS011;6306;47.134;15.344;2022-08-21T13:55:22;0.50;;;0.50;;
12482;SDS011;6306;47.134;15.344;2022-08-21T13:57:52;0.40;;;0.40;;
12482;SDS011;6306;47.134;15.344;2022-08-21T14:00:27;0.60;;;0.60;;
12482;SDS011;6306;47.134;15.344;2022-08-21T14:02:59;0.50;;;0.50;;
12482;SDS011;6306;47.134;15.344;2022-08-21T14:05:26;0.53;;;0.47;;
12482;SDS011;6306;47.134;15.344;2022-08-21T14:07:59;0.90;;;0.60;;
12482;SDS011;6306;47.134;15.344;2022-08-21T14:10:27;0.60;;;0.40;;
12482;SDS011;6306;47.134;15.344;2022-08-21T14:12:57;0.50;;;0.50;;
12482;SDS011;6306;47.134;15.344;2022-08-21T14:15:26;0.50;;;0.50;;
12482;SDS011;6306;47.134;15.344;2022-08-21T14:17:53;0.80;;;0.60;;
12482;SDS011;6306;47.134;15.344;2022-08-21T14:20:33;0.80;;;0.80;;
12482;SDS011;6306;47.134;15.344;2022-08-21T14:23:00;0.80;;;0.70;;
12482;SDS011;6306;47.134;15.344;2022-08-21T14:25:47;0.77;;;0.60;;
12482;SDS011;6306;47.134;15.344;2022-08-21T14:28:32;1.03;;;0.60;;
12482;SDS011;6306;47.134;15.344;2022-08-21T14:30:58;0.80;;;0.80;;
12482;SDS011;6306;47.134;15.344;2022-08-21T14:33:37;0.67;;;0.60;;
12482;SDS011;6306;47.134;15.344;2022-08-21T14:36:03;1.20;;;0.90;;
12482;SDS011;6306;47.134;15.344;2022-08-21T14:38:29;0.67;;;0.60;;
12482;SDS011;6306;47.134;15.344;2022-08-21T14:40:57;0.90;;;0.90;;
12482;SDS011;6306;47.134;15.344;2022-08-21T14:43:25;0.70;;;0.70;;
12482;SDS011;6306;47.134;15.344;2022-08-21T14:45:51;0.80;;;0.80;;
12482;SDS011;6306;47.134;15.344;2022-08-21T14:48:17;0.70;;;0.70;;
12482;SDS011;6306;47.134;15.344;2022-08-21T14:50:43;0.70;;;0.70;;
12482;SDS011;6306;47.134;15.344;2022-08-21T14:53:09;0.90;;;0.90;;
12482;SDS011;6306;47.134;15.344;2022-08-21T14:55:36;1.30;;;1.20;;
12482;SDS011;6306;47.134;15.344;2022-08-21T14:58:22;1.27;;;1.10;;
12482;SDS011;6306;47.134;15.344;2022-08-21T15:00:50;1.43;;;1.33;;
12482;SDS011;6306;47.134;15.344;2022-08-21T15:03:16;0.80;;;0.80;;
12482;SDS011;6306;47.134;15.344;2022-08-21T15:05:42;1.17;;;1.07;;
12482;SDS011;6306;47.134;15.344;2022-08-21T15:08:08;0.80;;;0.80;;
12482;SDS011;6306;47.134;15.344;2022-08-21T15:10:34;1.20;;;1.10;;
12482;SDS011;6306;47.134;15.344;2022-08-21T15:13:01;1.20;;;1.10;;
12482;SDS011;6306;47.134;15.344;2022-08-21T15:15:27;1.17;;;1.07;;
12482;SDS011;6306;47.134;15.344;2022-08-21T15:17:54;1.50;;;1.30;;
12482;SDS011;6306;47.134;15.344;2022-08-21T15:20:20;1.60;;;1.50;;
12482;SDS011;6306;47.134;15.344;2022-08-21T15:22:46;1.33;;;1.23;;
12482;SDS011;6306;47.134;15.344;2022-08-21T15:25:12;0.93;;;0.83;;
12482;SDS011;6306;47.134;15.344;2022-08-21T15:27:38;1.13;;;1.03;;
12482;SDS011;6306;47.134;15.344;2022-08-21T15:30:04;0.80;;;0.80;;
12482;SDS011;6306;47.134;15.344;2022-08-21T15:32:30;1.50;;;0.90;;
12482;SDS011;6306;47.134;15.344;2022-08-21T15:34:57;1.30;;;1.20;;
12482;SDS011;6306;47.134;15.344;2022-08-21T15:37:23;1.27;;;1.17;;
12482;SDS011;6306;47.134;15.344;2022-08-21T15:39:49;3.50;;;1.90;;
12482;SDS011;6306;47.134;15.344;2022-08-21T15:42:16;1.43;;;1.33;;
12482;SDS011;6306;47.134;15.344;2022-08-21T15:44:43;1.33;;;1.23;;
12482;SDS011;6306;47.134;15.344;2022-08-21T15:47:11;1.90;;;1.40;;
12482;SDS011;6306;47.134;15.344;2022-08-21T15:49:38;1.13;;;1.13;;
12482;SDS011;6306;47.134;15.344;2022-08-21T15:52:04;1.27;;;1.17;;
12482;SDS011;6306;47.134;15.344;2022-08-21T15:54:30;1.43;;;1.33;;
12482;SDS011;6306;47.134;15.344;2022-08-21T15:56:56;1.43;;;1.30;;
12482;SDS011;6306;47.134;15.344;2022-08-21T15:59:23;1.83;;;1.67;;
12482;SDS011;6306;47.134;15.344;2022-08-21T16:01:50;1.43;;;1.33;;
12482;SDS011;6306;47.134;15.344;2022-08-21T16:04:23;1.13;;;1.03;;
12482;SDS011;6306;47.134;15.344;2022-08-21T16:06:50;1.90;;;1.60;;
12482;SDS011;6306;47.134;15.344;2022-08-21T16:09:17;1.20;;;1.10;;
12482;SDS011;6306;47.134;15.344;2022-08-21T16:11:43;1.17;;;1.17;;
12482;SDS011;6306;47.134;15.344;2022-08-21T16:14:10;1.10;;;1.00;;
12482;SDS011;6306;47.134;15.344;2022-08-21T16:16:37;1.57;;;1.37;;
12482;SDS011;6306;47.134;15.344;2022-08-21T16:19:03;1.50;;;1.40;;
12482;SDS011;6306;47.134;15.344;2022-08-21T16:21:31;1.30;;;1.20;;
12482;SDS011;6306;47.134;15.344;2022-08-21T16:23:57;1.37;;;1.27;;
12482;SDS011;6306;47.134;15.344;2022-08-21T16:26:23;1.30;;;1.20;;
12482;SDS011;6306;47.134;15.344;2022-08-21T16:28:49;1.53;;;1.30;;
12482;SDS011;6306;47.134;15.344;2022-08-21T16:31:18;1.70;;;1.17;;
12482;SDS011;6306;47.134;15.344;2022-08-21T16:33:45;1.67;;;1.40;;
12482;SDS011;6306;47.134;15.344;2022-08-21T16:36:14;1.67;;;1.23;;
12482;SDS011;6306;47.134;15.344;2022-08-21T16:38:40;0.97;;;0.97;;